createdAt,value
2022-10-04T00:01:47.676Z,98892.84
2022-10-04T00:04:23.669Z,98900.91
2022-10-04T00:07:13.459Z,98894.59
2022-10-04T00:09:45.863Z,98898.81
2022-10-04T00:12:18.648Z,98896.25
2022-10-04T00:14:45.399Z,98895.75
2022-10-04T00:17:18.467Z,98901.00
2022-10-04T00:19:47.890Z,98898.03
2022-10-04T00:22:22.699Z,98899.97
2022-10-04T00:25:07.611Z,98905.66
2022-10-04T00:27:39.106Z,98902.97
2022-10-04T00:30:05.587Z,98901.53
2022-10-04T00:32:41.315Z,98903.59
2022-10-04T00:35:25.987Z,98903.78
2022-10-04T00:37:58.552Z,98899.56
2022-10-04T00:40:41.854Z,98899.75
2022-10-04T00:43:12.724Z,98900.06
2022-10-04T00:46:02.025Z,98900.06
2022-10-04T00:48:57.596Z,98900.28
2022-10-04T00:51:38.079Z,98895.00
2022-10-04T00:54:12.975Z,98901.00
2022-10-04T00:56:56.066Z,98896.56
2022-10-04T00:59:28.583Z,98904.63
2022-10-04T01:02:00.761Z,98900.50
2022-10-04T01:04:52.632Z,98899.41
2022-10-04T01:07:25.906Z,98899.34
2022-10-04T01:10:00.086Z,98895.81
2022-10-04T01:12:40.309Z,98892.94
2022-10-04T01:15:22.734Z,98892.19
2022-10-04T01:18:13.514Z,98894.34
2022-10-04T01:20:50.327Z,98898.50
2022-10-04T01:23:41.741Z,98891.59
2022-10-04T01:26:36.761Z,98889.72
2022-10-04T01:29:13.597Z,98884.97
2022-10-04T01:31:43.902Z,98881.84
2022-10-04T01:34:14.790Z,98876.88
2022-10-04T01:36:41.837Z,98875.00
2022-10-04T01:39:08.700Z,98878.94
2022-10-04T01:41:46.292Z,98871.38
2022-10-04T01:44:23.139Z,98882.63
2022-10-04T01:46:52.504Z,98886.47
2022-10-04T01:49:23.688Z,98878.81
2022-10-04T01:52:03.505Z,98868.78
2022-10-04T01:54:34.670Z,98875.50
2022-10-04T01:57:32.148Z,98871.78
2022-10-04T02:00:12.389Z,98874.75
2022-10-04T02:02:55.288Z,98873.13
2022-10-04T02:05:51.154Z,98874.47
2022-10-04T02:08:25.345Z,98877.25
2022-10-04T02:10:54.893Z,98874.16
2022-10-04T02:13:24.296Z,98872.78
2022-10-04T02:15:51.306Z,98865.25
2022-10-04T02:18:21.299Z,98876.41
2022-10-04T02:20:50.298Z,98871.13
2022-10-04T02:23:20.086Z,98876.28
2022-10-04T02:25:47.241Z,98871.22
2022-10-04T02:28:15.437Z,98862.31
2022-10-04T02:31:07.741Z,98869.66
2022-10-04T02:33:42.703Z,98871.19
2022-10-04T02:36:11.051Z,98866.47
2022-10-04T02:39:03.786Z,98877.94
2022-10-04T02:41:32.039Z,98871.19
2022-10-04T02:44:09.148Z,98863.75
2022-10-04T02:47:00.301Z,98868.81
2022-10-04T02:49:26.793Z,98879.88
2022-10-04T02:52:01.816Z,98873.97
2022-10-04T02:54:34.128Z,98867.88
2022-10-04T02:57:01.291Z,98879.16
2022-10-04T02:59:33.546Z,98874.16
2022-10-04T03:02:02.738Z,98865.88
2022-10-04T03:04:37.445Z,98873.44
2022-10-04T03:07:07.132Z,98882.31
2022-10-04T03:09:36.567Z,98871.97
2022-10-04T03:12:05.000Z,98862.00
2022-10-04T03:14:32.498Z,98870.28
2022-10-04T03:17:03.963Z,98859.94
2022-10-04T03:19:32.456Z,98874.09
2022-10-04T03:22:06.864Z,98870.84
2022-10-04T03:24:47.159Z,98870.28
2022-10-04T03:27:21.756Z,98869.84
2022-10-04T03:29:50.351Z,98877.50
2022-10-04T03:32:18.854Z,98856.06
2022-10-04T03:34:55.622Z,98883.03
2022-10-04T03:37:22.732Z,98877.16
2022-10-04T03:39:53.227Z,98882.50
2022-10-04T03:42:23.560Z,98889.50
2022-10-04T03:44:56.943Z,98882.88
2022-10-04T03:47:36.160Z,98894.56
2022-10-04T03:50:12.780Z,98895.88
2022-10-04T03:52:44.039Z,98894.16
2022-10-04T03:55:14.458Z,98906.13
2022-10-04T03:57:41.469Z,98897.66
2022-10-04T04:00:08.772Z,98907.16
2022-10-04T04:02:52.223Z,98911.66
2022-10-04T04:05:44.687Z,98908.38
2022-10-04T04:08:34.164Z,98910.94
2022-10-04T04:11:04.464Z,98910.50
2022-10-04T04:13:46.581Z,98904.41
2022-10-04T04:16:14.824Z,98917.22
2022-10-04T04:18:43.994Z,98921.53
2022-10-04T04:21:18.604Z,98913.44
2022-10-04T04:23:50.976Z,98922.94
2022-10-04T04:26:17.462Z,98917.66
2022-10-04T04:28:49.117Z,98902.47
2022-10-04T04:31:23.591Z,98910.13
2022-10-04T04:34:00.412Z,98910.03
2022-10-04T04:36:32.368Z,98912.41
2022-10-04T04:39:39.644Z,98906.72
2022-10-04T04:42:12.000Z,98919.16
2022-10-04T04:44:52.935Z,98916.09
2022-10-04T04:47:29.014Z,98921.09
2022-10-04T04:49:58.788Z,98925.97
2022-10-04T04:52:28.936Z,98925.88
2022-10-04T04:54:56.396Z,98933.53
2022-10-04T04:57:23.218Z,98934.34
2022-10-04T04:59:56.457Z,98935.09
2022-10-04T05:02:35.357Z,98932.50
2022-10-04T05:05:20.672Z,98942.94
2022-10-04T05:07:47.699Z,98948.00
2022-10-04T05:10:31.348Z,98941.25
2022-10-04T05:13:04.218Z,98942.75
2022-10-04T05:15:37.113Z,98941.38
2022-10-04T05:18:21.194Z,98941.91
2022-10-04T05:20:54.024Z,98946.72
2022-10-04T05:23:21.357Z,98945.88
2022-10-04T05:25:49.756Z,98945.06
2022-10-04T05:28:18.189Z,98952.22
2022-10-04T05:30:52.009Z,98953.81
2022-10-04T05:33:24.933Z,98951.13
2022-10-04T05:36:09.846Z,98950.22
2022-10-04T05:38:39.350Z,98945.97
2022-10-04T05:41:11.346Z,98953.53
2022-10-04T05:43:45.408Z,98952.50
2022-10-04T05:46:18.821Z,98955.00
2022-10-04T05:48:49.077Z,98959.25
2022-10-04T05:51:30.546Z,98971.88
2022-10-04T05:54:01.161Z,98972.16
2022-10-04T05:56:30.971Z,98972.81
2022-10-04T05:59:22.149Z,98976.41
2022-10-04T06:02:31.281Z,98974.19
2022-10-04T06:05:19.560Z,98981.94
2022-10-04T06:08:18.643Z,98981.94
2022-10-04T06:10:48.266Z,98983.94
2022-10-04T06:13:14.892Z,98988.81
2022-10-04T06:15:57.408Z,98983.56
2022-10-04T06:18:44.966Z,98996.22
2022-10-04T06:21:22.401Z,99005.59
2022-10-04T06:23:53.608Z,99003.88
2022-10-04T06:26:29.921Z,98996.13
2022-10-04T06:29:06.145Z,99004.59
2022-10-04T06:31:55.392Z,99007.84
2022-10-04T06:34:48.844Z,99012.91
2022-10-04T06:37:43.209Z,99007.06
2022-10-04T06:40:25.936Z,99010.31
2022-10-04T06:43:04.177Z,99012.81
2022-10-04T06:45:45.542Z,99014.09
2022-10-04T06:48:37.316Z,99017.50
2022-10-04T06:51:22.627Z,99016.88
2022-10-04T06:54:18.096Z,99017.41
2022-10-04T06:57:15.688Z,99017.75
2022-10-04T07:00:24.522Z,99021.00
2022-10-04T07:03:09.571Z,99019.16
2022-10-04T07:05:50.582Z,99023.22
2022-10-04T07:08:48.836Z,99026.72
2022-10-04T07:11:27.829Z,99021.75
2022-10-04T07:13:57.749Z,99022.84
2022-10-04T07:16:47.080Z,99015.09
2022-10-04T07:19:19.775Z,99033.16
2022-10-04T07:22:05.645Z,99038.06
2022-10-04T07:24:44.150Z,99032.16
2022-10-04T07:27:17.172Z,99038.72
2022-10-04T07:29:46.504Z,99038.44
2022-10-04T07:32:22.363Z,99047.75
2022-10-04T07:35:10.375Z,99037.03
2022-10-04T07:37:50.169Z,99038.97
2022-10-04T07:40:29.976Z,99040.63
2022-10-04T07:42:59.983Z,99051.44
2022-10-04T07:45:32.662Z,99047.19
2022-10-04T07:48:12.973Z,99055.38
2022-10-04T07:50:51.717Z,99058.28
2022-10-04T07:53:27.606Z,99057.72
2022-10-04T07:56:08.061Z,99061.97
2022-10-04T07:58:46.085Z,99064.25
2022-10-04T08:01:18.989Z,99062.13
2022-10-04T08:03:52.198Z,99065.44
2022-10-04T08:06:37.598Z,99056.56
2022-10-04T08:09:32.623Z,99058.56
2022-10-04T08:12:06.073Z,99052.94
2022-10-04T08:15:01.875Z,99054.22
2022-10-04T08:18:24.825Z,99061.47
2022-10-04T08:21:07.669Z,99058.88
2022-10-04T08:23:58.422Z,99051.75
2022-10-04T08:26:27.730Z,99064.81
2022-10-04T08:29:40.105Z,99062.78
2022-10-04T08:32:15.550Z,99062.69
2022-10-04T08:34:45.076Z,99059.56
2022-10-04T08:37:33.208Z,99040.53
2022-10-04T08:40:17.698Z,99050.63
2022-10-04T08:43:02.771Z,99060.75
2022-10-04T08:46:13.089Z,99053.84
2022-10-04T08:49:10.435Z,99050.94
2022-10-04T08:51:54.854Z,99047.22
2022-10-04T08:54:24.400Z,99045.75
2022-10-04T08:57:16.477Z,99049.78
2022-10-04T08:59:49.483Z,99046.28
2022-10-04T09:02:21.868Z,99044.09
2022-10-04T09:05:00.858Z,99042.25
2022-10-04T09:07:27.325Z,99044.28
2022-10-04T09:10:24.895Z,99039.19
2022-10-04T09:13:32.952Z,99035.88
2022-10-04T09:16:14.644Z,99037.09
2022-10-04T09:19:11.799Z,99043.50
2022-10-04T09:21:47.641Z,99040.75
2022-10-04T09:24:39.839Z,99040.34
2022-10-04T09:27:26.873Z,99033.94
2022-10-04T09:30:14.827Z,99039.94
2022-10-04T09:32:59.696Z,99035.34
2022-10-04T09:35:59.273Z,99030.38
2022-10-04T09:38:43.942Z,99028.31
2022-10-04T09:41:44.237Z,99030.72
2022-10-04T09:44:33.891Z,99028.53
2022-10-04T09:47:37.802Z,99024.94
2022-10-04T09:50:37.288Z,99031.81
2022-10-04T09:53:36.820Z,99034.22
2022-10-04T09:56:22.216Z,99037.44
2022-10-04T09:59:22.105Z,99032.34
2022-10-04T10:02:00.808Z,99034.03
2022-10-04T10:04:30.011Z,99033.22
2022-10-04T10:07:14.613Z,99035.13
2022-10-04T10:10:10.919Z,99042.56
2022-10-04T10:13:33.028Z,99041.19
2022-10-04T10:16:12.544Z,99027.03
2022-10-04T10:18:56.989Z,99029.75
2022-10-04T10:21:38.790Z,99041.19
2022-10-04T10:24:26.464Z,99047.69
2022-10-04T10:27:05.805Z,99047.91
2022-10-04T10:29:57.437Z,99053.59
2022-10-04T10:32:51.127Z,99051.94
2022-10-04T10:35:24.563Z,99050.41
2022-10-04T10:38:14.717Z,99048.72
2022-10-04T10:40:41.268Z,99054.06
2022-10-04T10:43:37.155Z,99040.97
2022-10-04T10:46:39.375Z,99050.41
2022-10-04T10:49:37.890Z,99048.31
2022-10-04T10:52:42.492Z,99052.91
2022-10-04T10:55:29.735Z,99052.53
2022-10-04T10:58:22.716Z,99046.81
2022-10-04T11:01:14.127Z,99036.31
2022-10-04T11:04:18.021Z,99044.00
2022-10-04T11:07:18.423Z,99034.78
2022-10-04T11:10:19.766Z,99035.97
2022-10-04T11:13:04.299Z,99029.56
2022-10-04T11:15:49.493Z,99028.41
2022-10-04T11:18:22.161Z,99033.34
2022-10-04T11:21:06.538Z,99025.31
2022-10-04T11:23:58.480Z,99025.69
2022-10-04T11:27:12.744Z,99027.66
2022-10-04T11:30:03.955Z,99027.75
2022-10-04T11:32:45.436Z,99016.88
2022-10-04T11:35:36.793Z,99010.91
2022-10-04T11:38:27.412Z,99016.38
2022-10-04T11:41:22.462Z,99013.19
2022-10-04T11:44:15.834Z,99010.22
2022-10-04T11:46:56.103Z,99009.72
2022-10-04T11:49:50.381Z,98999.50
2022-10-04T11:52:38.337Z,98993.81
2022-10-04T11:55:32.286Z,98993.63
2022-10-04T11:58:24.526Z,98994.69
2022-10-04T12:01:14.217Z,98992.66
2022-10-04T12:04:04.012Z,98993.13
2022-10-04T12:06:39.862Z,98989.81
2022-10-04T12:09:33.205Z,98986.44
2022-10-04T12:12:37.890Z,98987.47
2022-10-04T12:15:16.253Z,98985.56
2022-10-04T12:17:48.646Z,98990.66
2022-10-04T12:20:53.154Z,98979.53
2022-10-04T12:23:42.916Z,98976.50
2022-10-04T12:26:32.041Z,98973.06
2022-10-04T12:29:27.740Z,98972.22
2022-10-04T12:32:10.784Z,98955.47
2022-10-04T12:34:50.992Z,98940.25
2022-10-04T12:37:53.627Z,98960.22
2022-10-04T12:40:33.258Z,98959.97
2022-10-04T12:43:28.106Z,98954.47
2022-10-04T12:45:56.327Z,98950.41
2022-10-04T12:48:27.583Z,98951.56
2022-10-04T12:51:23.502Z,98946.34
2022-10-04T12:54:07.934Z,98942.34
2022-10-04T12:56:45.645Z,98941.38
2022-10-04T12:59:19.838Z,98936.03
2022-10-04T13:02:24.199Z,98931.41
2022-10-04T13:05:26.857Z,98939.41
2022-10-04T13:08:08.424Z,98942.19
2022-10-04T13:10:35.099Z,98937.22
2022-10-04T13:13:23.427Z,98936.88
2022-10-04T13:18:57.912Z,98935.66
2022-10-04T13:22:02.359Z,98936.34
2022-10-04T13:24:59.757Z,98943.91
2022-10-04T13:27:47.969Z,98939.09
2022-10-04T13:30:27.890Z,98930.06
2022-10-04T13:33:24.591Z,98934.63
2022-10-04T13:36:12.810Z,98929.84
2022-10-04T13:39:01.955Z,98930.94
2022-10-04T13:41:38.778Z,98910.34
2022-10-04T13:44:27.140Z,98922.28
2022-10-04T13:47:17.442Z,98920.91
2022-10-04T13:50:00.943Z,98918.44
2022-10-04T13:53:02.745Z,98905.53
2022-10-04T13:55:54.574Z,98915.72
2022-10-04T13:58:42.517Z,98918.88
2022-10-04T14:01:15.447Z,98909.13
2022-10-04T14:04:03.808Z,98915.28
2022-10-04T14:07:03.712Z,98918.31
2022-10-04T14:09:58.963Z,98917.06
2022-10-04T14:12:46.805Z,98923.06
2022-10-04T14:15:51.062Z,98921.81
2022-10-04T14:18:39.181Z,98917.44
2022-10-04T14:21:39.806Z,98917.84
2022-10-04T14:24:53.670Z,98913.44
2022-10-04T14:27:29.482Z,98918.66
2022-10-04T14:30:25.748Z,98913.03
2022-10-04T14:33:11.305Z,98912.16
2022-10-04T14:35:47.116Z,98914.13
2022-10-04T14:38:25.837Z,98909.41
2022-10-04T14:40:56.077Z,98904.59
2022-10-04T14:43:50.451Z,98910.63
2022-10-04T14:46:42.037Z,98902.66
2022-10-04T14:49:27.307Z,98912.84
2022-10-04T14:52:06.640Z,98908.72
2022-10-04T14:54:42.229Z,98905.66
2022-10-04T14:57:18.514Z,98903.50
2022-10-04T14:59:59.654Z,98902.13
2022-10-04T15:02:26.329Z,98904.59
2022-10-04T15:05:31.981Z,98903.66
2022-10-04T15:08:16.183Z,98904.47
2022-10-04T15:10:56.479Z,98903.13
2022-10-04T15:13:44.552Z,98910.28
2022-10-04T15:16:22.134Z,98907.97
2022-10-04T15:19:03.647Z,98902.44
2022-10-04T15:22:02.624Z,98911.38
2022-10-04T15:24:51.509Z,98906.84
2022-10-04T15:27:45.653Z,98900.00
2022-10-04T15:30:19.252Z,98897.53
2022-10-04T15:32:48.479Z,98901.91
2022-10-04T15:35:52.729Z,98904.53
2022-10-04T15:38:19.297Z,98899.75
2022-10-04T15:41:19.566Z,98904.56
2022-10-04T15:44:05.900Z,98901.28
2022-10-04T15:47:07.525Z,98902.94
2022-10-04T15:49:52.614Z,98904.31
2022-10-04T15:52:43.118Z,98909.28
2022-10-04T15:55:21.706Z,98906.25
2022-10-04T15:57:48.213Z,98912.84
2022-10-04T16:00:32.535Z,98916.94
2022-10-04T16:03:27.103Z,98917.22
2022-10-04T16:06:08.312Z,98912.81
2022-10-04T16:08:47.070Z,98911.44
2022-10-04T16:11:47.885Z,98914.31
2022-10-04T16:14:50.561Z,98917.84
2022-10-04T16:17:53.640Z,98926.06
2022-10-04T16:20:55.269Z,98927.78
2022-10-04T16:23:28.183Z,98930.06
2022-10-04T16:26:03.818Z,98932.88
2022-10-04T16:28:45.330Z,98934.03
2022-10-04T16:31:39.653Z,98948.00
2022-10-04T16:34:08.059Z,98944.75
2022-10-04T16:37:25.336Z,98952.81
2022-10-04T16:40:02.526Z,98960.28
2022-10-04T16:42:45.457Z,98955.03
2022-10-04T16:45:12.307Z,98962.28
2022-10-04T16:47:52.803Z,98964.16
2022-10-04T16:50:51.908Z,98968.69
2022-10-04T16:53:21.410Z,98977.09
2022-10-04T16:56:09.591Z,98983.38
2022-10-04T16:58:43.986Z,98988.81
2022-10-04T17:01:23.094Z,98993.91
2022-10-04T17:04:08.600Z,98996.31
2022-10-04T17:06:54.955Z,99003.31
2022-10-04T17:09:30.817Z,99010.97
2022-10-04T17:12:06.622Z,99018.78
2022-10-04T17:14:39.004Z,99015.38
2022-10-04T17:17:22.402Z,99022.69
2022-10-04T17:19:56.867Z,99027.06
2022-10-04T17:23:08.439Z,99027.44
2022-10-04T17:25:52.978Z,99031.59
2022-10-04T17:28:26.145Z,99042.91
2022-10-04T17:31:26.479Z,99035.00
2022-10-04T17:34:11.432Z,99032.53
2022-10-04T17:36:56.285Z,99053.56
2022-10-04T17:39:44.575Z,99061.94
2022-10-04T17:42:20.145Z,99058.53
2022-10-04T17:45:24.055Z,99062.31
2022-10-04T17:48:19.082Z,99069.03
2022-10-04T17:51:14.465Z,99078.47
2022-10-04T17:54:05.672Z,99083.34
2022-10-04T17:56:42.843Z,99084.88
2022-10-04T17:59:16.054Z,99086.50
2022-10-04T18:01:46.805Z,99093.97
2022-10-04T18:04:30.203Z,99083.78
2022-10-04T18:07:14.921Z,99097.03
2022-10-04T18:09:47.860Z,99095.84
2022-10-04T18:12:29.282Z,99095.84
2022-10-04T18:15:20.892Z,99100.13
2022-10-04T18:17:50.995Z,99105.69
2022-10-04T18:20:17.543Z,99101.06
2022-10-04T18:22:49.681Z,99100.69
2022-10-04T18:25:26.766Z,99108.63
2022-10-04T18:28:08.669Z,99105.06
2022-10-04T18:30:54.010Z,99115.47
2022-10-04T18:33:29.840Z,99106.00
2022-10-04T18:36:18.820Z,99112.06
2022-10-04T18:38:58.030Z,99111.22
2022-10-04T18:41:44.951Z,99115.47
2022-10-04T18:44:16.921Z,99112.75
2022-10-04T18:46:48.035Z,99114.41
2022-10-04T18:49:18.643Z,99123.88
2022-10-04T18:51:58.532Z,99128.22
2022-10-04T18:54:41.834Z,99129.78
2022-10-04T18:57:27.037Z,99134.97
2022-10-04T19:00:38.527Z,99135.09
2022-10-04T19:03:28.994Z,99136.28
2022-10-04T19:06:09.435Z,99144.56
2022-10-04T19:08:53.317Z,99139.34
2022-10-04T19:11:27.915Z,99142.09
2022-10-04T19:14:21.652Z,99140.53
2022-10-04T19:17:01.505Z,99136.53
2022-10-04T19:19:55.858Z,99157.06
2022-10-04T19:22:45.453Z,99159.31
2022-10-04T19:25:24.327Z,99158.50
2022-10-04T19:28:23.707Z,99175.63
2022-10-04T19:31:00.152Z,99184.97
2022-10-04T19:33:36.439Z,99178.47
2022-10-04T19:36:19.956Z,99188.63
2022-10-04T19:39:13.527Z,99189.56
2022-10-04T19:41:55.188Z,99201.50
2022-10-04T19:44:31.180Z,99210.97
2022-10-04T19:47:25.561Z,99216.19
2022-10-04T19:50:16.264Z,99222.91
2022-10-04T19:52:48.198Z,99224.78
2022-10-04T19:55:23.250Z,99220.53
2022-10-04T19:58:05.236Z,99225.16
2022-10-04T20:00:33.136Z,99224.41
2022-10-04T20:02:59.810Z,99222.88
2022-10-04T20:05:27.020Z,99219.47
2022-10-04T20:08:05.329Z,99216.16
2022-10-04T20:10:36.244Z,99218.63
2022-10-04T20:13:23.494Z,99221.22
2022-10-04T20:16:01.355Z,99230.31
2022-10-04T20:18:34.512Z,99225.94
2022-10-04T20:21:01.743Z,99228.53
2022-10-04T20:23:40.547Z,99237.91
2022-10-04T20:26:09.703Z,99222.41
2022-10-04T20:28:40.820Z,99233.50
2022-10-04T20:31:10.427Z,99242.16
2022-10-04T20:33:39.059Z,99243.78
2022-10-04T20:36:12.224Z,99241.53
2022-10-04T20:39:00.182Z,99240.59
2022-10-04T20:41:50.692Z,99244.50
2022-10-04T20:44:55.894Z,99241.91
2022-10-04T20:47:46.875Z,99262.06
2022-10-04T20:50:15.867Z,99266.47
2022-10-04T20:52:49.251Z,99269.88
2022-10-04T20:55:37.241Z,99279.34
2022-10-04T20:58:23.786Z,99287.00
2022-10-04T21:00:53.913Z,99285.22
2022-10-04T21:03:21.771Z,99283.47
2022-10-04T21:06:08.358Z,99279.44
2022-10-04T21:08:36.954Z,99284.25
2022-10-04T21:11:03.379Z,99301.41
2022-10-04T21:13:42.719Z,99300.66
2022-10-04T21:16:10.195Z,99307.09
2022-10-04T21:18:36.803Z,99303.78
2022-10-04T21:21:03.535Z,99312.16
2022-10-04T21:23:34.872Z,99307.88
2022-10-04T21:26:20.816Z,99311.28
2022-10-04T21:28:48.156Z,99309.19
2022-10-04T21:31:14.787Z,99310.25
2022-10-04T21:33:41.373Z,99298.41
2022-10-04T21:36:08.070Z,99302.56
2022-10-04T21:38:34.868Z,99304.06
2022-10-04T21:41:01.750Z,99307.00
2022-10-04T21:43:28.369Z,99312.22
2022-10-04T21:45:55.167Z,99307.22
2022-10-04T21:48:23.254Z,99308.44
2022-10-04T21:50:51.243Z,99314.69
2022-10-04T21:53:18.588Z,99321.53
2022-10-04T21:55:45.492Z,99320.47
2022-10-04T21:58:12.323Z,99321.34
2022-10-04T22:00:39.013Z,99324.03
2022-10-04T22:03:05.653Z,99322.59
2022-10-04T22:05:32.196Z,99321.53
2022-10-04T22:07:59.572Z,99324.25
2022-10-04T22:10:26.334Z,99322.38
2022-10-04T22:12:56.787Z,99321.63
2022-10-04T22:15:25.435Z,99323.31
2022-10-04T22:17:52.361Z,99328.28
2022-10-04T22:20:19.142Z,99324.63
2022-10-04T22:22:46.153Z,99322.84
2022-10-04T22:25:18.233Z,99325.25
2022-10-04T22:27:45.597Z,99333.31
2022-10-04T22:30:23.596Z,99326.88
2022-10-04T22:32:51.014Z,99323.47
2022-10-04T22:35:19.891Z,99318.16
2022-10-04T22:37:48.224Z,99318.78
2022-10-04T22:40:25.595Z,99318.56
2022-10-04T22:42:54.549Z,99319.50
2022-10-04T22:45:27.032Z,99320.66
2022-10-04T22:47:57.563Z,99331.03
2022-10-04T22:50:30.029Z,99327.00
2022-10-04T22:52:56.720Z,99331.28
2022-10-04T22:55:23.366Z,99337.16
2022-10-04T22:57:50.258Z,99326.06
2022-10-04T23:00:16.792Z,99339.16
2022-10-04T23:02:43.646Z,99330.53
2022-10-04T23:05:20.009Z,99329.59
2022-10-04T23:07:48.150Z,99330.44
2022-10-04T23:10:17.806Z,99333.03
2022-10-04T23:12:46.497Z,99333.53
2022-10-04T23:15:19.239Z,99333.53
2022-10-04T23:17:52.487Z,99336.13
2022-10-04T23:20:20.491Z,99336.00
2022-10-04T23:22:49.490Z,99330.81
2022-10-04T23:25:26.107Z,99338.72
2022-10-04T23:27:54.688Z,99334.47
2022-10-04T23:30:22.673Z,99331.72
2022-10-04T23:32:52.246Z,99327.28
2022-10-04T23:35:24.621Z,99328.44
2022-10-04T23:37:52.413Z,99342.25
2022-10-04T23:40:21.337Z,99339.56
2022-10-04T23:42:50.706Z,99340.28
2022-10-04T23:45:26.829Z,99338.13
2022-10-04T23:47:55.910Z,99336.25
2022-10-04T23:50:27.071Z,99335.53
2022-10-04T23:52:58.108Z,99344.16
2022-10-04T23:55:28.980Z,99337.38
2022-10-04T23:57:56.390Z,99347.06
